Time;durP1;ratioP1;P1;durP2;ratioP2;P2;SDS_P1;SDS_P2;PMS_P1;PMS_P2;Temp;Humidity;BMP_temperature;BMP_pressure;BME280_temperature;BME280_humidity;BME280_pressure;Samples;Min_cycle;Max_cycle;Signal;HPM_P1;HPM_P2
2022/11/09 00:01:37;;;;;;;14.53;2.20;;;;;;;;;;5020319;28;20217;-79
2022/11/09 00:04:05;;;;;;;16.23;2.67;;;;;;;;;;5030529;28;20287;-79
2022/11/09 00:06:34;;;;;;;13.30;1.87;;;;;;;;;;5020545;28;20623;-80
2022/11/09 00:09:01;;;;;;;15.60;2.63;;;;;;;;;;5032612;28;20364;-80
2022/11/09 00:11:28;;;;;;;16.87;1.80;;;;;;;;;;5024599;28;20284;-80
2022/11/09 00:13:56;;;;;;;11.90;2.10;;;;;;;;;;5033573;28;20291;-80
2022/11/09 00:16:23;;;;;;;17.93;2.00;;;;;;;;;;5016189;28;20253;-80
2022/11/09 00:18:52;;;;;;;10.97;1.67;;;;;;;;;;5015295;28;20236;-80
2022/11/09 00:21:20;;;;;;;18.40;2.30;;;;;;;;;;5021901;28;20395;-80
2022/11/09 00:23:48;;;;;;;13.77;1.90;;;;;;;;;;5014738;28;20232;-80
2022/11/09 00:26:16;;;;;;;13.80;2.00;;;;;;;;;;5030470;28;20723;-79
2022/11/09 00:28:43;;;;;;;14.83;2.33;;;;;;;;;;5019866;28;20704;-80
2022/11/09 00:31:11;;;;;;;14.67;2.33;;;;;;;;;;5025252;28;20221;-79
2022/11/09 00:33:39;;;;;;;12.47;1.97;;;;;;;;;;5021353;28;20288;-80
2022/11/09 00:36:07;;;;;;;15.23;2.20;;;;;;;;;;5030200;28;20635;-80
2022/11/09 00:38:34;;;;;;;13.60;2.00;;;;;;;;;;5020781;28;20200;-80
2022/11/09 00:41:03;;;;;;;14.40;2.07;;;;;;;;;;5033657;28;20244;-80
2022/11/09 00:43:30;;;;;;;12.97;1.90;;;;;;;;;;5025216;28;20239;-80
2022/11/09 00:45:58;;;;;;;13.80;2.17;;;;;;;;;;5028587;28;20646;-80
2022/11/09 00:48:25;;;;;;;14.47;2.33;;;;;;;;;;5016886;28;20240;-80
2022/11/09 00:50:52;;;;;;;13.37;1.93;;;;;;;;;;5028714;28;20276;-80
2022/11/09 00:53:20;;;;;;;14.23;2.03;;;;;;;;;;5026735;28;20920;-80
2022/11/09 00:55:54;;;;;;;11.77;1.73;;;;;;;;;;5021340;28;20225;-80
2022/11/09 00:58:23;;;;;;;15.70;2.10;;;;;;;;;;5029553;28;20706;-79
2022/11/09 01:00:50;;;;;;;11.90;1.60;;;;;;;;;;5018276;28;20307;-79
2022/11/09 01:03:17;;;;;;;14.90;2.23;;;;;;;;;;5026843;28;20193;-80
2022/11/09 01:05:44;;;;;;;15.07;1.93;;;;;;;;;;5021921;28;20259;-80
2022/11/09 01:08:12;;;;;;;15.13;1.70;;;;;;;;;;5014636;28;20279;-79
2022/11/09 01:10:41;;;;;;;10.23;1.87;;;;;;;;;;5017771;28;20733;-80
2022/11/09 01:13:08;;;;;;;13.03;2.10;;;;;;;;;;5018097;28;20202;-79
2022/11/09 01:15:40;;;;;;;12.03;1.60;;;;;;;;;;5028771;28;20235;-79
2022/11/09 01:18:07;;;;;;;12.33;2.07;;;;;;;;;;5019694;28;20224;-79
2022/11/09 01:20:34;;;;;;;14.40;1.80;;;;;;;;;;5023635;28;20246;-80
2022/11/09 01:23:01;;;;;;;14.30;1.60;;;;;;;;;;5026659;28;20227;-79
2022/11/09 01:25:29;;;;;;;18.20;2.30;;;;;;;;;;5019208;28;20288;-79
2022/11/09 01:27:56;;;;;;;14.10;1.90;;;;;;;;;;5013660;28;20288;-79
2022/11/09 01:30:23;;;;;;;13.00;1.90;;;;;;;;;;5023233;28;20319;-80
2022/11/09 01:32:52;;;;;;;13.47;1.80;;;;;;;;;;5013492;28;20288;-80
2022/11/09 01:35:19;;;;;;;18.03;2.07;;;;;;;;;;5020203;28;20207;-80
2022/11/09 01:37:47;;;;;;;12.20;2.00;;;;;;;;;;5029243;28;20346;-79
2022/11/09 01:40:14;;;;;;;14.93;1.80;;;;;;;;;;5017698;28;20284;-79
2022/11/09 01:42:41;;;;;;;12.13;1.90;;;;;;;;;;5022037;28;20238;-79
2022/11/09 01:45:22;;;;;;;11.43;1.47;;;;;;;;;;5025732;28;20279;-79
2022/11/09 01:47:53;;;;;;;11.57;1.43;;;;;;;;;;5014450;28;20244;-80
2022/11/09 01:50:25;;;;;;;10.90;1.80;;;;;;;;;;5027376;28;20232;-80
2022/11/09 01:52:52;;;;;;;10.60;1.40;;;;;;;;;;5022598;28;20274;-79
2022/11/09 01:55:21;;;;;;;10.33;1.70;;;;;;;;;;5029659;28;20239;-79
2022/11/09 01:57:52;;;;;;;12.90;1.90;;;;;;;;;;5028922;28;20239;-79
2022/11/09 02:00:20;;;;;;;9.13;1.60;;;;;;;;;;5017648;28;20292;-80
2022/11/09 02:02:50;;;;;;;12.83;1.87;;;;;;;;;;5024266;28;20284;-80
2022/11/09 02:05:20;;;;;;;13.43;1.73;;;;;;;;;;5015762;28;20248;-79
2022/11/09 02:07:49;;;;;;;13.50;1.63;;;;;;;;;;5017010;28;20293;-80
2022/11/09 02:10:21;;;;;;;12.83;2.03;;;;;;;;;;5015371;28;20280;-80
2022/11/09 02:12:49;;;;;;;10.93;1.70;;;;;;;;;;5020353;28;20204;-80
2022/11/09 02:15:16;;;;;;;11.63;1.97;;;;;;;;;;5023292;28;20288;-80
2022/11/09 02:17:44;;;;;;;13.37;2.13;;;;;;;;;;5012842;28;20640;-80
2022/11/09 02:20:14;;;;;;;11.17;2.10;;;;;;;;;;5016335;28;20208;-80
2022/11/09 02:22:41;;;;;;;8.83;1.50;;;;;;;;;;5013018;28;20288;-80
2022/11/09 02:25:09;;;;;;;14.27;2.30;;;;;;;;;;5012413;28;20229;-80
2022/11/09 02:27:37;;;;;;;15.60;1.70;;;;;;;;;;5020943;28;20284;-79
2022/11/09 02:30:06;;;;;;;12.47;1.23;;;;;;;;;;5015484;28;20264;-79
2022/11/09 02:32:33;;;;;;;10.80;1.60;;;;;;;;;;5028091;28;20224;-79
2022/11/09 02:35:00;;;;;;;14.57;1.73;;;;;;;;;;5014818;28;20288;-79
2022/11/09 02:37:30;;;;;;;13.60;1.77;;;;;;;;;;5023675;28;20283;-79
2022/11/09 02:39:59;;;;;;;10.37;1.50;;;;;;;;;;5017232;28;20615;-79
2022/11/09 02:42:26;;;;;;;10.57;1.67;;;;;;;;;;5028340;28;20595;-80
2022/11/09 02:44:56;;;;;;;9.40;1.47;;;;;;;;;;5018587;28;20283;-80
2022/11/09 02:47:23;;;;;;;11.77;2.07;;;;;;;;;;5021197;28;20288;-80
2022/11/09 02:49:50;;;;;;;14.33;2.00;;;;;;;;;;5025661;28;20204;-80
2022/11/09 02:52:17;;;;;;;11.40;1.60;;;;;;;;;;5022964;28;20228;-80
2022/11/09 02:54:46;;;;;;;11.53;2.10;;;;;;;;;;4993089;28;20288;-80
2022/11/09 02:57:13;;;;;;;11.60;1.97;;;;;;;;;;5014593;28;20291;-80
2022/11/09 02:59:40;;;;;;;10.70;2.13;;;;;;;;;;4999984;28;20220;-80
2022/11/09 03:02:08;;;;;;;15.80;1.97;;;;;;;;;;5024985;28;20311;-80
2022/11/09 03:04:35;;;;;;;11.60;1.60;;;;;;;;;;5022615;28;20200;-80
2022/11/09 03:07:02;;;;;;;11.07;1.60;;;;;;;;;;5031659;28;20291;-80
2022/11/09 03:09:30;;;;;;;15.30;1.67;;;;;;;;;;5015180;28;20302;-79
2022/11/09 03:12:27;;;;;;;11.77;1.63;;;;;;;;;;5026833;28;20233;-80
2022/11/09 03:14:45;;;;;;;9.30;1.90;;;;;;;;;;5023294;28;20196;-80
2022/11/09 03:17:13;;;;;;;14.50;2.00;;;;;;;;;;5016607;28;20678;-79
2022/11/09 03:19:40;;;;;;;11.77;1.90;;;;;;;;;;5028529;28;20197;-80
2022/11/09 03:22:07;;;;;;;9.37;1.73;;;;;;;;;;5015748;28;20252;-79
2022/11/09 03:24:35;;;;;;;17.77;1.87;;;;;;;;;;5021159;28;20283;-79
2022/11/09 03:27:03;;;;;;;13.00;2.30;;;;;;;;;;5018750;28;20229;-79
2022/11/09 03:29:30;;;;;;;15.20;1.73;;;;;;;;;;5018108;28;20327;-80
2022/11/09 03:31:58;;;;;;;13.83;1.50;;;;;;;;;;5030635;28;20228;-80
2022/11/09 03:34:25;;;;;;;11.50;1.60;;;;;;;;;;5025647;28;20284;-79
2022/11/09 03:36:52;;;;;;;11.70;1.70;;;;;;;;;;5018951;28;20379;-79
2022/11/09 03:39:19;;;;;;;11.27;1.50;;;;;;;;;;5019097;28;20228;-79
2022/11/09 03:41:46;;;;;;;10.47;1.57;;;;;;;;;;5027960;28;20307;-79
2022/11/09 03:44:15;;;;;;;10.47;2.00;;;;;;;;;;5022015;28;20292;-79
2022/11/09 03:46:42;;;;;;;12.90;1.70;;;;;;;;;;5030962;28;20204;-79
2022/11/09 03:49:10;;;;;;;10.30;1.43;;;;;;;;;;5019191;28;20739;-80
2022/11/09 03:51:37;;;;;;;11.10;1.73;;;;;;;;;;5027675;28;20208;-79
2022/11/09 03:54:04;;;;;;;11.60;1.70;;;;;;;;;;5015042;28;20684;-79
2022/11/09 03:56:32;;;;;;;12.90;1.87;;;;;;;;;;5015716;28;20235;-80
2022/11/09 03:58:59;;;;;;;12.63;1.70;;;;;;;;;;5016938;28;20287;-80
2022/11/09 04:01:27;;;;;;;12.53;1.43;;;;;;;;;;5031979;28;20303;-79
2022/11/09 04:03:54;;;;;;;13.50;1.50;;;;;;;;;;5025610;28;20233;-79
2022/11/09 04:06:22;;;;;;;10.87;1.70;;;;;;;;;;5015387;28;20292;-79
2022/11/09 04:08:49;;;;;;;13.80;1.63;;;;;;;;;;5014912;28;20233;-80
2022/11/09 04:11:16;;;;;;;14.13;1.70;;;;;;;;;;5014941;28;20659;-80
2022/11/09 04:13:44;;;;;;;10.27;1.43;;;;;;;;;;5015261;28;20338;-80
2022/11/09 04:16:11;;;;;;;10.10;1.63;;;;;;;;;;5016461;28;20287;-80
2022/11/09 04:18:39;;;;;;;9.20;1.43;;;;;;;;;;5020767;28;20384;-79
2022/11/09 04:21:07;;;;;;;10.60;1.77;;;;;;;;;;5024443;28;20232;-79
2022/11/09 04:23:34;;;;;;;9.30;1.87;;;;;;;;;;5027592;28;20239;-80
2022/11/09 04:26:01;;;;;;;9.03;1.63;;;;;;;;;;5017822;28;20291;-79
2022/11/09 04:28:28;;;;;;;16.63;1.60;;;;;;;;;;5030025;28;20282;-79
2022/11/09 04:30:55;;;;;;;12.23;1.67;;;;;;;;;;5022029;28;20307;-79
2022/11/09 04:33:22;;;;;;;15.80;1.83;;;;;;;;;;5022834;28;20292;-80
2022/11/09 04:35:51;;;;;;;12.10;1.90;;;;;;;;;;5019822;28;20201;-80
2022/11/09 04:38:18;;;;;;;12.27;1.83;;;;;;;;;;5015843;28;20209;-79
2022/11/09 04:40:45;;;;;;;13.37;1.63;;;;;;;;;;5014231;28;20281;-79
2022/11/09 04:43:14;;;;;;;13.07;1.60;;;;;;;;;;5030729;28;20255;-79
2022/11/09 04:45:43;;;;;;;15.03;2.10;;;;;;;;;;5018864;28;20279;-80
2022/11/09 04:48:12;;;;;;;10.67;1.73;;;;;;;;;;5024125;28;20247;-80
2022/11/09 04:50:39;;;;;;;10.53;1.53;;;;;;;;;;5026727;28;20552;-80
2022/11/09 04:53:08;;;;;;;12.57;1.87;;;;;;;;;;5017983;28;20287;-80
2022/11/09 04:55:36;;;;;;;12.33;1.70;;;;;;;;;;5015012;28;20232;-80
2022/11/09 04:58:03;;;;;;;12.13;1.80;;;;;;;;;;5020647;28;20346;-79
2022/11/09 05:00:30;;;;;;;14.93;2.23;;;;;;;;;;5022330;28;20284;-79
2022/11/09 05:03:00;;;;;;;15.20;1.70;;;;;;;;;;5019761;28;20227;-79
2022/11/09 05:05:27;;;;;;;12.37;1.40;;;;;;;;;;5022803;28;20640;-79
2022/11/09 05:07:54;;;;;;;12.73;2.03;;;;;;;;;;5015585;28;20259;-79
2022/11/09 05:10:23;;;;;;;15.20;1.97;;;;;;;;;;5030045;28;20292;-80
2022/11/09 05:12:50;;;;;;;10.60;1.60;;;;;;;;;;5018135;28;20220;-80
2022/11/09 05:15:17;;;;;;;12.87;2.20;;;;;;;;;;5021446;28;20251;-80
2022/11/09 05:17:44;;;;;;;12.43;1.80;;;;;;;;;;5022308;28;20232;-79
2022/11/09 05:20:12;;;;;;;9.13;1.47;;;;;;;;;;5027969;28;20283;-79
2022/11/09 05:25:28;;;;;;;9.43;1.80;;;;;;;;;;5021998;28;20199;-79
2022/11/09 05:27:55;;;;;;;10.77;1.87;;;;;;;;;;5031608;28;20735;-80
2022/11/09 05:30:23;;;;;;;15.33;1.83;;;;;;;;;;5017353;28;20326;-80
2022/11/09 05:32:50;;;;;;;11.30;1.87;;;;;;;;;;5023934;28;20229;-79
2022/11/09 05:35:17;;;;;;;17.83;2.30;;;;;;;;;;5019817;28;20295;-80
2022/11/09 05:37:47;;;;;;;10.40;1.73;;;;;;;;;;5024311;28;20283;-79
2022/11/09 05:40:14;;;;;;;13.37;1.77;;;;;;;;;;5018960;28;20201;-80
2022/11/09 05:42:43;;;;;;;13.13;2.37;;;;;;;;;;5028845;28;20232;-80
2022/11/09 05:45:11;;;;;;;15.90;1.67;;;;;;;;;;5020048;28;20278;-79
2022/11/09 05:47:40;;;;;;;12.43;2.00;;;;;;;;;;5022757;28;20197;-80
2022/11/09 05:50:08;;;;;;;14.70;1.87;;;;;;;;;;5025176;28;20303;-79
2022/11/09 05:52:36;;;;;;;11.83;2.07;;;;;;;;;;5024302;28;20221;-79
2022/11/09 05:55:03;;;;;;;16.03;2.00;;;;;;;;;;5020114;28;20236;-79
2022/11/09 05:57:30;;;;;;;12.33;1.90;;;;;;;;;;5026834;28;20235;-80
2022/11/09 05:59:59;;;;;;;18.10;1.80;;;;;;;;;;5019697;28;20648;-79
2022/11/09 06:02:26;;;;;;;11.00;1.70;;;;;;;;;;5019349;28;20257;-80
2022/11/09 06:04:53;;;;;;;14.50;1.87;;;;;;;;;;5028094;28;20259;-79
2022/11/09 06:07:21;;;;;;;15.60;2.17;;;;;;;;;;5032653;28;20283;-79
2022/11/09 06:09:48;;;;;;;13.33;2.00;;;;;;;;;;5022234;28;20316;-80
2022/11/09 06:12:15;;;;;;;15.00;2.43;;;;;;;;;;5015042;28;20230;-79
2022/11/09 06:14:42;;;;;;;16.27;2.13;;;;;;;;;;5014934;28;20289;-80
2022/11/09 06:17:11;;;;;;;15.97;1.93;;;;;;;;;;5019053;28;20232;-79
2022/11/09 06:19:38;;;;;;;12.13;2.10;;;;;;;;;;5012841;28;20287;-79
2022/11/09 06:22:05;;;;;;;18.53;2.10;;;;;;;;;;5021969;28;20279;-79
2022/11/09 06:24:32;;;;;;;22.77;2.10;;;;;;;;;;5014394;28;20284;-79
2022/11/09 06:26:59;;;;;;;10.50;2.10;;;;;;;;;;5019114;28;20292;-79
2022/11/09 06:29:26;;;;;;;15.23;2.30;;;;;;;;;;5021114;28;20713;-79
2022/11/09 06:31:54;;;;;;;13.13;2.00;;;;;;;;;;5012696;28;20278;-79
2022/11/09 06:34:22;;;;;;;14.07;2.13;;;;;;;;;;5020349;28;20755;-79
2022/11/09 06:36:50;;;;;;;12.87;2.20;;;;;;;;;;5017603;28;20258;-78
2022/11/09 06:39:17;;;;;;;10.77;2.13;;;;;;;;;;5012333;28;20634;-78
2022/11/09 06:41:44;;;;;;;13.80;2.30;;;;;;;;;;5010904;28;20259;-79
2022/11/09 06:44:11;;;;;;;14.97;1.73;;;;;;;;;;5015712;28;20328;-79
2022/11/09 06:46:38;;;;;;;15.93;2.00;;;;;;;;;;5009892;28;20288;-79
2022/11/09 06:49:05;;;;;;;10.20;2.00;;;;;;;;;;5006423;28;20288;-80
2022/11/09 06:51:34;;;;;;;14.80;2.30;;;;;;;;;;5015819;28;20291;-78
2022/11/09 06:54:01;;;;;;;22.30;2.30;;;;;;;;;;5027691;28;20288;-79
2022/11/09 06:56:28;;;;;;;16.20;1.93;;;;;;;;;;5022162;28;20228;-79
2022/11/09 06:58:55;;;;;;;15.57;1.90;;;;;;;;;;5012078;28;20197;-79
2022/11/09 07:01:25;;;;;;;14.70;2.07;;;;;;;;;;5022716;28;20296;-79
2022/11/09 07:03:52;;;;;;;11.03;1.77;;;;;;;;;;5012586;28;20359;-79
2022/11/09 07:06:19;;;;;;;12.30;1.90;;;;;;;;;;4989549;28;20208;-79
2022/11/09 07:08:48;;;;;;;11.90;2.00;;;;;;;;;;5003302;28;20204;-79
2022/11/09 07:11:16;;;;;;;18.97;3.23;;;;;;;;;;5003106;28;20632;-79
2022/11/09 07:13:43;;;;;;;14.20;2.50;;;;;;;;;;5011408;28;20284;-79
2022/11/09 07:16:11;;;;;;;18.73;2.37;;;;;;;;;;5024004;28;20288;-79
2022/11/09 07:18:38;;;;;;;13.13;2.30;;;;;;;;;;5011980;28;20200;-79
2022/11/09 07:21:06;;;;;;;12.33;2.30;;;;;;;;;;5011653;28;20197;-78
2022/11/09 07:23:33;;;;;;;12.27;1.83;;;;;;;;;;5009249;28;20252;-80
2022/11/09 07:26:02;;;;;;;17.70;2.50;;;;;;;;;;5020695;28;20287;-79
2022/11/09 07:28:29;;;;;;;14.00;2.00;;;;;;;;;;5008803;28;20292;-79
2022/11/09 07:30:58;;;;;;;16.87;2.30;;;;;;;;;;5020960;28;20220;-79
2022/11/09 07:33:25;;;;;;;14.20;2.20;;;;;;;;;;5028373;28;20236;-79
2022/11/09 07:35:52;;;;;;;16.97;2.20;;;;;;;;;;5015320;28;20588;-79
2022/11/09 07:38:19;;;;;;;13.37;2.17;;;;;;;;;;5013214;28;20252;-79
2022/11/09 07:40:46;;;;;;;12.97;1.90;;;;;;;;;;5015628;28;20292;-80
2022/11/09 07:43:16;;;;;;;11.20;1.90;;;;;;;;;;5013933;28;20229;-80
2022/11/09 07:45:43;;;;;;;14.03;1.97;;;;;;;;;;5014484;28;20193;-79
2022/11/09 07:48:11;;;;;;;15.80;2.33;;;;;;;;;;5015098;28;20295;-80
2022/11/09 07:50:39;;;;;;;18.10;2.37;;;;;;;;;;5009078;28;20865;-78
2022/11/09 07:53:07;;;;;;;12.10;2.00;;;;;;;;;;5016216;28;21675;-80
2022/11/09 07:55:35;;;;;;;17.43;2.20;;;;;;;;;;5017000;28;20554;-79
2022/11/09 07:58:05;;;;;;;11.20;2.10;;;;;;;;;;5018370;28;20292;-78
2022/11/09 08:00:35;;;;;;;14.63;2.10;;;;;;;;;;5021336;28;20306;-79
2022/11/09 08:03:02;;;;;;;11.30;2.40;;;;;;;;;;5021007;28;20264;-79
2022/11/09 08:05:29;;;;;;;13.03;2.33;;;;;;;;;;5018673;28;20634;-78
2022/11/09 08:07:57;;;;;;;15.53;1.90;;;;;;;;;;5023959;28;20204;-80
2022/11/09 08:10:24;;;;;;;9.30;2.30;;;;;;;;;;5018372;28;20613;-80
2022/11/09 08:12:55;;;;;;;13.13;1.90;;;;;;;;;;5016676;28;20280;-79
2022/11/09 08:15:22;;;;;;;12.33;1.90;;;;;;;;;;4997745;28;20221;-80
2022/11/09 08:17:51;;;;;;;13.67;2.37;;;;;;;;;;5015158;28;20283;-79
2022/11/09 08:20:18;;;;;;;10.47;1.93;;;;;;;;;;5013426;28;20279;-79
2022/11/09 08:22:46;;;;;;;10.27;2.20;;;;;;;;;;5012939;28;20225;-79
2022/11/09 08:25:14;;;;;;;12.40;2.20;;;;;;;;;;5012642;28;20692;-79
2022/11/09 08:27:41;;;;;;;12.20;1.73;;;;;;;;;;5016442;28;20292;-80
2022/11/09 08:30:12;;;;;;;12.20;1.77;;;;;;;;;;5020132;28;20319;-80
2022/11/09 08:32:39;;;;;;;13.40;2.13;;;;;;;;;;5025990;28;20283;-79
2022/11/09 08:35:09;;;;;;;12.23;2.00;;;;;;;;;;5015461;28;20573;-79
2022/11/09 08:37:37;;;;;;;9.73;1.87;;;;;;;;;;5020627;28;20239;-79
2022/11/09 08:40:04;;;;;;;16.60;2.40;;;;;;;;;;5021301;28;20795;-80
2022/11/09 08:42:31;;;;;;;13.37;2.00;;;;;;;;;;5020197;28;20304;-79
2022/11/09 08:44:58;;;;;;;8.20;1.67;;;;;;;;;;5012739;28;20288;-79
2022/11/09 08:47:26;;;;;;;8.53;1.57;;;;;;;;;;5016485;28;20328;-80
2022/11/09 08:49:53;;;;;;;11.90;1.60;;;;;;;;;;5013083;28;20336;-79
2022/11/09 08:52:21;;;;;;;12.77;1.70;;;;;;;;;;5018065;28;20288;-79
2022/11/09 08:54:48;;;;;;;9.37;1.80;;;;;;;;;;5022369;28;20285;-80
2022/11/09 08:57:18;;;;;;;7.57;1.60;;;;;;;;;;5011747;28;20276;-79
2022/11/09 08:59:45;;;;;;;10.17;1.70;;;;;;;;;;5012235;28;20197;-79
2022/11/09 09:02:13;;;;;;;10.43;1.47;;;;;;;;;;5012731;28;20204;-80
2022/11/09 09:04:40;;;;;;;9.40;1.70;;;;;;;;;;5015308;28;20584;-79
2022/11/09 09:07:08;;;;;;;9.70;1.60;;;;;;;;;;5011397;28;20207;-80
2022/11/09 09:09:37;;;;;;;10.20;1.50;;;;;;;;;;5016639;28;20735;-79
2022/11/09 09:12:05;;;;;;;8.77;1.57;;;;;;;;;;5012534;28;20197;-80
2022/11/09 09:14:32;;;;;;;7.40;1.60;;;;;;;;;;5018278;28;20626;-79
2022/11/09 09:16:59;;;;;;;7.10;1.57;;;;;;;;;;5019101;28;20300;-79
2022/11/09 09:19:26;;;;;;;6.73;1.70;;;;;;;;;;5014115;28;20288;-79
2022/11/09 09:21:54;;;;;;;9.47;1.43;;;;;;;;;;5011906;28;20669;-81
2022/11/09 09:24:21;;;;;;;5.33;1.30;;;;;;;;;;5012389;28;20308;-83
2022/11/09 09:26:49;;;;;;;6.63;1.13;;;;;;;;;;5011938;28;20205;-82
2022/11/09 09:29:17;;;;;;;8.53;1.57;;;;;;;;;;5010648;28;20291;-83
2022/11/09 09:31:44;;;;;;;8.80;2.00;;;;;;;;;;5011537;28;20284;-82
2022/11/09 09:34:12;;;;;;;5.33;1.47;;;;;;;;;;5016472;28;20660;-84
2022/11/09 09:36:39;;;;;;;8.53;1.60;;;;;;;;;;5016897;28;20205;-85
2022/11/09 09:39:07;;;;;;;7.00;1.60;;;;;;;;;;5011209;28;20255;-84
2022/11/09 09:41:37;;;;;;;8.20;1.90;;;;;;;;;;5013792;28;20271;-84
2022/11/09 09:44:17;;;;;;;8.43;2.17;;;;;;;;;;5007286;28;20220;-84
2022/11/09 09:46:48;;;;;;;4.90;1.70;;;;;;;;;;5010537;28;20205;-85
2022/11/09 09:49:17;;;;;;;8.00;1.50;;;;;;;;;;5010526;28;20681;-85
2022/11/09 09:51:48;;;;;;;5.97;1.50;;;;;;;;;;5011135;28;20677;-84
2022/11/09 09:54:18;;;;;;;5.43;1.10;;;;;;;;;;5011840;28;20228;-84
2022/11/09 09:56:46;;;;;;;6.30;1.30;;;;;;;;;;5011138;28;20201;-83
2022/11/09 09:59:20;;;;;;;8.70;1.30;;;;;;;;;;5009698;28;20205;-84
2022/11/09 10:01:48;;;;;;;3.50;1.33;;;;;;;;;;5011279;28;20216;-84
2022/11/09 10:04:17;;;;;;;6.93;1.30;;;;;;;;;;5019931;28;20751;-85
2022/11/09 10:06:57;;;;;;;5.83;1.40;;;;;;;;;;5014336;28;20227;-84
2022/11/09 10:09:27;;;;;;;7.20;1.20;;;;;;;;;;5001771;28;20208;-84
2022/11/09 10:11:57;;;;;;;5.53;0.95;;;;;;;;;;5008069;28;20201;-83
2022/11/09 10:14:45;;;;;;;7.05;1.38;;;;;;;;;;5010742;28;20201;-84
2022/11/09 10:17:18;;;;;;;5.80;1.48;;;;;;;;;;5010841;28;20346;-84
2022/11/09 10:19:53;;;;;;;5.88;1.35;;;;;;;;;;5011076;28;20638;-84
2022/11/09 10:22:23;;;;;;;7.40;1.48;;;;;;;;;;5016523;28;20247;-84
2022/11/09 10:24:54;;;;;;;7.15;1.30;;;;;;;;;;5010922;28;20278;-84
2022/11/09 10:27:27;;;;;;;5.05;1.17;;;;;;;;;;5009568;28;20647;-85
2022/11/09 10:29:54;;;;;;;4.97;1.20;;;;;;;;;;5014337;28;20241;-84
2022/11/09 10:32:24;;;;;;;7.35;1.73;;;;;;;;;;5011018;28;20212;-83
2022/11/09 10:34:55;;;;;;;8.63;1.42;;;;;;;;;;5017238;28;20200;-84
2022/11/09 10:37:25;;;;;;;8.95;1.52;;;;;;;;;;5015298;28;20271;-84
2022/11/09 10:39:55;;;;;;;5.72;1.25;;;;;;;;;;5010428;28;20275;-84
2022/11/09 10:42:22;;;;;;;8.48;1.98;;;;;;;;;;5010770;28;20611;-83
2022/11/09 10:44:49;;;;;;;8.13;1.45;;;;;;;;;;5010495;28;20307;-84
2022/11/09 10:47:18;;;;;;;8.43;1.70;;;;;;;;;;5010308;28;20235;-84
2022/11/09 10:49:46;;;;;;;8.13;1.77;;;;;;;;;;5015088;28;20233;-84
2022/11/09 10:52:28;;;;;;;5.10;1.17;;;;;;;;;;5026081;28;20196;-83
2022/11/09 10:55:15;;;;;;;8.38;1.70;;;;;;;;;;5017280;28;20619;-84
2022/11/09 10:57:50;;;;;;;5.75;1.20;;;;;;;;;;5015705;28;20224;-84
2022/11/09 11:00:18;;;;;;;4.75;1.42;;;;;;;;;;5017724;28;20200;-84
2022/11/09 11:02:50;;;;;;;7.28;1.52;;;;;;;;;;5016932;28;20263;-84
2022/11/09 11:05:24;;;;;;;7.57;1.75;;;;;;;;;;5017243;28;20205;-84
2022/11/09 11:07:51;;;;;;;7.30;1.73;;;;;;;;;;5019608;28;20235;-84
2022/11/09 11:10:20;;;;;;;8.02;1.38;;;;;;;;;;5020842;28;20240;-84
2022/11/09 11:12:53;;;;;;;5.57;1.38;;;;;;;;;;5017285;28;20232;-83
2022/11/09 11:15:22;;;;;;;9.07;1.77;;;;;;;;;;5016425;28;20304;-84
2022/11/09 11:17:50;;;;;;;7.85;1.58;;;;;;;;;;5011692;28;20213;-84
2022/11/09 11:20:26;;;;;;;4.60;1.33;;;;;;;;;;5017034;28;20722;-85
2022/11/09 11:23:06;;;;;;;8.32;1.60;;;;;;;;;;5013432;28;20208;-84
2022/11/09 11:25:33;;;;;;;5.80;1.63;;;;;;;;;;5016886;28;20209;-83
2022/11/09 11:28:05;;;;;;;8.40;1.88;;;;;;;;;;5016610;28;20197;-84
2022/11/09 11:30:35;;;;;;;7.03;1.73;;;;;;;;;;5016912;28;20232;-84
2022/11/09 11:33:02;;;;;;;9.25;1.90;;;;;;;;;;5017408;28;20295;-82
2022/11/09 11:35:34;;;;;;;8.52;1.75;;;;;;;;;;5017270;28;20196;-83
2022/11/09 11:38:09;;;;;;;8.60;1.67;;;;;;;;;;5017245;28;20224;-83
2022/11/09 11:40:40;;;;;;;6.28;1.70;;;;;;;;;;5019164;28;20228;-83
2022/11/09 11:43:16;;;;;;;6.05;1.42;;;;;;;;;;5018055;28;20215;-83
2022/11/09 11:45:44;;;;;;;8.93;1.60;;;;;;;;;;5017014;28;20307;-84
2022/11/09 11:48:24;;;;;;;8.43;1.60;;;;;;;;;;5016790;28;20205;-84
2022/11/09 11:50:54;;;;;;;7.10;1.63;;;;;;;;;;5016385;28;20209;-85
2022/11/09 11:53:32;;;;;;;6.75;2.00;;;;;;;;;;5019572;28;20237;-84
2022/11/09 11:56:07;;;;;;;5.38;2.10;;;;;;;;;;5016874;28;20300;-84
2022/11/09 11:58:40;;;;;;;6.57;2.00;;;;;;;;;;5015460;28;20358;-80
2022/11/09 12:01:13;;;;;;;6.82;2.58;;;;;;;;;;5021695;28;20232;-80
2022/11/09 12:03:44;;;;;;;6.25;1.95;;;;;;;;;;5016419;28;20327;-80
2022/11/09 12:06:17;;;;;;;5.10;1.20;;;;;;;;;;4999468;28;20251;-79
2022/11/09 12:08:51;;;;;;;3.65;1.17;;;;;;;;;;5017193;28;20283;-80
2022/11/09 12:11:22;;;;;;;5.60;1.02;;;;;;;;;;5012734;28;20283;-80
2022/11/09 12:13:57;;;;;;;5.10;1.33;;;;;;;;;;5013836;28;20292;-80
2022/11/09 12:16:28;;;;;;;5.20;1.58;;;;;;;;;;5013508;28;20192;-81
2022/11/09 12:19:01;;;;;;;6.97;1.10;;;;;;;;;;5021917;28;20250;-81
2022/11/09 12:21:32;;;;;;;5.70;1.27;;;;;;;;;;5020597;28;20697;-80
2022/11/09 12:24:15;;;;;;;7.07;1.30;;;;;;;;;;5016742;28;20715;-81
2022/11/09 12:26:47;;;;;;;3.80;0.95;;;;;;;;;;5013364;28;20289;-80
2022/11/09 12:29:18;;;;;;;7.15;1.42;;;;;;;;;;5012195;28;20728;-82
2022/11/09 12:31:50;;;;;;;6.25;1.25;;;;;;;;;;5015412;28;20235;-84
2022/11/09 12:34:21;;;;;;;6.18;1.13;;;;;;;;;;5018643;28;20289;-82
2022/11/09 12:36:52;;;;;;;6.13;1.27;;;;;;;;;;5017853;28;20211;-82
2022/11/09 12:39:23;;;;;;;5.10;1.15;;;;;;;;;;5019258;28;20299;-81
2022/11/09 12:41:51;;;;;;;5.65;1.40;;;;;;;;;;5014600;28;20291;-81
2022/11/09 12:44:20;;;;;;;7.63;1.63;;;;;;;;;;5017450;28;20263;-81
2022/11/09 12:46:50;;;;;;;5.43;1.20;;;;;;;;;;5021322;28;20224;-81
2022/11/09 12:49:34;;;;;;;6.25;1.27;;;;;;;;;;5015744;28;20559;-80
2022/11/09 12:52:01;;;;;;;6.47;1.20;;;;;;;;;;5015555;28;20287;-81
2022/11/09 12:54:30;;;;;;;5.82;1.20;;;;;;;;;;5015158;28;20603;-81
2022/11/09 12:56:59;;;;;;;3.58;1.08;;;;;;;;;;5015292;28;20251;-81
2022/11/09 12:59:56;;;;;;;8.45;1.58;;;;;;;;;;5014991;28;20300;-81
2022/11/09 13:02:25;;;;;;;3.10;0.98;;;;;;;;;;4991338;28;20194;-82
2022/11/09 13:04:56;;;;;;;4.78;1.20;;;;;;;;;;5012528;28;20267;-81
2022/11/09 13:08:00;;;;;;;3.92;1.15;;;;;;;;;;5018194;28;20292;-81
2022/11/09 13:10:53;;;;;;;5.80;1.13;;;;;;;;;;5015871;28;20676;-81
2022/11/09 13:13:24;;;;;;;5.30;1.45;;;;;;;;;;5018264;28;20244;-80
2022/11/09 13:16:08;;;;;;;4.72;1.35;;;;;;;;;;5016141;28;20201;-81
2022/11/09 13:21:39;;;;;;;7.75;1.38;;;;;;;;;;5006626;28;20205;-81
2022/11/09 13:24:24;;;;;;;3.92;1.10;;;;;;;;;;5014549;28;20319;-81
2022/11/09 13:26:56;;;;;;;5.03;1.10;;;;;;;;;;5017406;28;20225;-81
2022/11/09 13:29:27;;;;;;;6.10;1.70;;;;;;;;;;5015305;28;20283;-81
2022/11/09 13:32:15;;;;;;;7.50;1.17;;;;;;;;;;5011463;28;20292;-80
2022/11/09 13:34:43;;;;;;;7.63;1.92;;;;;;;;;;5005648;28;20233;-81
2022/11/09 13:37:29;;;;;;;5.45;1.42;;;;;;;;;;5014383;28;20288;-80
2022/11/09 13:39:56;;;;;;;6.32;1.40;;;;;;;;;;5014342;28;20292;-80
2022/11/09 13:42:28;;;;;;;6.07;1.20;;;;;;;;;;5011224;28;20628;-81
2022/11/09 13:45:16;;;;;;;7.55;1.40;;;;;;;;;;5018300;28;20248;-79
2022/11/09 13:47:50;;;;;;;9.98;1.30;;;;;;;;;;5017919;28;20229;-78
2022/11/09 13:50:18;;;;;;;3.70;1.23;;;;;;;;;;5016644;28;20756;-79
2022/11/09 13:52:50;;;;;;;5.82;1.48;;;;;;;;;;5014530;28;20291;-79
2022/11/09 13:55:31;;;;;;;3.88;1.40;;;;;;;;;;5013156;28;20201;-78
2022/11/09 13:58:01;;;;;;;8.55;1.50;;;;;;;;;;5014915;28;20371;-79
2022/11/09 14:00:30;;;;;;;6.70;1.30;;;;;;;;;;5012530;28;20237;-79
2022/11/09 14:02:59;;;;;;;5.93;1.38;;;;;;;;;;5015428;28;20731;-78
2022/11/09 14:05:27;;;;;;;9.23;1.77;;;;;;;;;;5012570;28;20307;-79
2022/11/09 14:07:55;;;;;;;8.02;1.70;;;;;;;;;;5013921;28;20279;-79
2022/11/09 14:10:29;;;;;;;6.07;1.40;;;;;;;;;;5015812;28;20203;-79
2022/11/09 14:13:05;;;;;;;10.50;2.35;;;;;;;;;;5015775;28;20231;-79
2022/11/09 14:15:40;;;;;;;9.10;1.90;;;;;;;;;;5019192;28;20201;-79
2022/11/09 14:18:12;;;;;;;6.45;1.20;;;;;;;;;;5015222;28;20221;-79
2022/11/09 14:20:41;;;;;;;5.97;1.70;;;;;;;;;;5013894;28;20674;-79
2022/11/09 14:23:15;;;;;;;8.88;1.40;;;;;;;;;;5014463;28;20201;-79
2022/11/09 14:25:43;;;;;;;10.98;1.42;;;;;;;;;;5010279;28;21579;-79
2022/11/09 14:28:20;;;;;;;4.70;1.27;;;;;;;;;;5015119;28;20200;-79
2022/11/09 14:30:48;;;;;;;4.30;1.25;;;;;;;;;;5016950;28;20315;-79
2022/11/09 14:33:20;;;;;;;6.85;1.27;;;;;;;;;;5010629;28;20731;-79
2022/11/09 14:35:48;;;;;;;6.05;1.20;;;;;;;;;;5015613;28;20227;-79
2022/11/09 14:38:17;;;;;;;9.70;1.55;;;;;;;;;;5019462;28;20248;-78
2022/11/09 14:40:45;;;;;;;3.80;1.00;;;;;;;;;;5016096;28;20614;-79
2022/11/09 14:43:20;;;;;;;8.07;1.00;;;;;;;;;;5010804;28;20204;-79
2022/11/09 14:45:50;;;;;;;6.10;1.17;;;;;;;;;;5015602;28;20252;-79
2022/11/09 14:48:18;;;;;;;5.90;1.30;;;;;;;;;;5011972;28;20225;-79
2022/11/09 14:50:45;;;;;;;7.93;1.10;;;;;;;;;;5009253;28;20210;-79
2022/11/09 14:53:16;;;;;;;4.00;0.90;;;;;;;;;;5013837;28;20255;-79
2022/11/09 14:55:44;;;;;;;7.05;1.27;;;;;;;;;;5015267;28;20247;-79